sensor_id;sensor_type;location;lat;lon;timestamp;temperature;humidity
10070;DHT22;5074;53.720;10.014;2022-12-01T00:01:19;4.10;99.90
10070;DHT22;5074;53.720;10.014;2022-12-01T00:03:47;4.10;99.90
10070;DHT22;5074;53.720;10.014;2022-12-01T00:06:16;4.10;99.90
10070;DHT22;5074;53.720;10.014;2022-12-01T00:08:46;4.10;99.90
10070;DHT22;5074;53.720;10.014;2022-12-01T00:11:29;4.10;99.90
10070;DHT22;5074;53.720;10.014;2022-12-01T00:13:59;4.10;99.90
10070;DHT22;5074;53.720;10.014;2022-12-01T00:16:27;4.10;99.90
10070;DHT22;5074;53.720;10.014;2022-12-01T00:18:56;4.10;99.90
10070;DHT22;5074;53.720;10.014;2022-12-01T00:21:24;4.00;99.90
10070;DHT22;5074;53.720;10.014;2022-12-01T00:23:54;4.00;99.90
10070;DHT22;5074;53.720;10.014;2022-12-01T00:26:24;4.00;99.90
10070;DHT22;5074;53.720;10.014;2022-12-01T00:28:53;4.00;99.90
10070;DHT22;5074;53.720;10.014;2022-12-01T00:31:24;4.00;99.90
10070;DHT22;5074;53.720;10.014;2022-12-01T00:33:53;4.00;99.90
10070;DHT22;5074;53.720;10.014;2022-12-01T00:36:21;4.00;99.90
10070;DHT22;5074;53.720;10.014;2022-12-01T00:38:50;4.00;99.90
10070;DHT22;5074;53.720;10.014;2022-12-01T00:41:19;4.00;99.90
10070;DHT22;5074;53.720;10.014;2022-12-01T00:43:47;4.00;99.90
10070;DHT22;5074;53.720;10.014;2022-12-01T00:46:16;4.00;99.90
10070;DHT22;5074;53.720;10.014;2022-12-01T00:48:45;4.00;99.90
10070;DHT22;5074;53.720;10.014;2022-12-01T00:51:13;4.00;99.90
10070;DHT22;5074;53.720;10.014;2022-12-01T00:53:41;4.00;99.90
10070;DHT22;5074;53.720;10.014;2022-12-01T00:56:09;4.00;99.90
10070;DHT22;5074;53.720;10.014;2022-12-01T00:58:38;4.00;99.90
10070;DHT22;5074;53.720;10.014;2022-12-01T01:01:06;4.00;99.90
10070;DHT22;5074;53.720;10.014;2022-12-01T01:03:34;4.00;99.90
10070;DHT22;5074;53.720;10.014;2022-12-01T01:06:04;4.00;99.90
10070;DHT22;5074;53.720;10.014;2022-12-01T01:08:34;4.00;99.90
10070;DHT22;5074;53.720;10.014;2022-12-01T01:11:03;4.00;99.90
10070;DHT22;5074;53.720;10.014;2022-12-01T01:13:31;4.00;99.90
10070;DHT22;5074;53.720;10.014;2022-12-01T01:16:01;4.00;99.90
10070;DHT22;5074;53.720;10.014;2022-12-01T01:18:30;4.00;99.90
10070;DHT22;5074;53.720;10.014;2022-12-01T01:20:59;3.90;99.90
10070;DHT22;5074;53.720;10.014;2022-12-01T01:23:30;3.90;99.90
10070;DHT22;5074;53.720;10.014;2022-12-01T01:25:59;3.90;99.90
10070;DHT22;5074;53.720;10.014;2022-12-01T01:28:28;3.90;99.90
10070;DHT22;5074;53.720;10.014;2022-12-01T01:30:57;3.90;99.90
10070;DHT22;5074;53.720;10.014;2022-12-01T01:33:25;3.90;99.90
10070;DHT22;5074;53.720;10.014;2022-12-01T01:35:53;3.90;99.90
10070;DHT22;5074;53.720;10.014;2022-12-01T01:38:25;3.90;99.90
10070;DHT22;5074;53.720;10.014;2022-12-01T01:40:55;3.90;99.90
10070;DHT22;5074;53.720;10.014;2022-12-01T01:43:37;3.90;99.90
10070;DHT22;5074;53.720;10.014;2022-12-01T01:46:09;3.90;99.90
10070;DHT22;5074;53.720;10.014;2022-12-01T01:48:38;3.90;99.90
10070;DHT22;5074;53.720;10.014;2022-12-01T01:51:08;3.90;99.90
10070;DHT22;5074;53.720;10.014;2022-12-01T01:53:39;3.90;99.90
10070;DHT22;5074;53.720;10.014;2022-12-01T01:56:10;3.80;99.90
10070;DHT22;5074;53.720;10.014;2022-12-01T01:58:38;3.80;99.90
10070;DHT22;5074;53.720;10.014;2022-12-01T02:01:07;3.90;99.90
10070;DHT22;5074;53.720;10.014;2022-12-01T02:03:35;3.90;99.90
10070;DHT22;5074;53.720;10.014;2022-12-01T02:06:06;3.90;99.90
10070;DHT22;5074;53.720;10.014;2022-12-01T02:08:36;3.90;99.90
10070;DHT22;5074;53.720;10.014;2022-12-01T02:11:10;3.90;99.90
10070;DHT22;5074;53.720;10.014;2022-12-01T02:13:58;3.80;99.90
10070;DHT22;5074;53.720;10.014;2022-12-01T02:16:37;3.90;99.90
10070;DHT22;5074;53.720;10.014;2022-12-01T02:19:25;3.90;99.90
10070;DHT22;5074;53.720;10.014;2022-12-01T02:22:16;3.90;99.90
10070;DHT22;5074;53.720;10.014;2022-12-01T02:25:06;3.90;99.90
10070;DHT22;5074;53.720;10.014;2022-12-01T02:27:54;3.90;99.90
10070;DHT22;5074;53.720;10.014;2022-12-01T02:30:41;3.80;99.90
10070;DHT22;5074;53.720;10.014;2022-12-01T02:33:13;3.90;99.90
10070;DHT22;5074;53.720;10.014;2022-12-01T02:35:45;3.90;99.90
10070;DHT22;5074;53.720;10.014;2022-12-01T02:38:22;3.90;99.90
10070;DHT22;5074;53.720;10.014;2022-12-01T02:40:56;3.90;99.90
10070;DHT22;5074;53.720;10.014;2022-12-01T02:43:34;3.90;99.90
10070;DHT22;5074;53.720;10.014;2022-12-01T02:46:11;3.90;99.90
10070;DHT22;5074;53.720;10.014;2022-12-01T02:48:42;3.90;99.90
10070;DHT22;5074;53.720;10.014;2022-12-01T02:51:15;3.90;99.90
10070;DHT22;5074;53.720;10.014;2022-12-01T02:53:48;3.90;99.90
10070;DHT22;5074;53.720;10.014;2022-12-01T02:56:19;3.80;99.90
10070;DHT22;5074;53.720;10.014;2022-12-01T02:58:49;3.80;99.90
10070;DHT22;5074;53.720;10.014;2022-12-01T03:01:26;3.80;99.90
10070;DHT22;5074;53.720;10.014;2022-12-01T03:04:13;3.80;99.90
10070;DHT22;5074;53.720;10.014;2022-12-01T03:06:51;3.80;99.90
10070;DHT22;5074;53.720;10.014;2022-12-01T03:09:40;3.80;99.90
10070;DHT22;5074;53.720;10.014;2022-12-01T03:12:19;3.80;99.90
10070;DHT22;5074;53.720;10.014;2022-12-01T03:14:57;3.80;99.90
10070;DHT22;5074;53.720;10.014;2022-12-01T03:17:37;3.70;99.90
10070;DHT22;5074;53.720;10.014;2022-12-01T03:20:11;3.80;99.90
10070;DHT22;5074;53.720;10.014;2022-12-01T03:22:44;3.80;99.90
10070;DHT22;5074;53.720;10.014;2022-12-01T03:25:16;3.80;99.90
10070;DHT22;5074;53.720;10.014;2022-12-01T03:27:46;3.80;99.90
10070;DHT22;5074;53.720;10.014;2022-12-01T03:30:41;3.80;99.90
10070;DHT22;5074;53.720;10.014;2022-12-01T03:33:13;3.80;99.90
10070;DHT22;5074;53.720;10.014;2022-12-01T03:35:49;3.70;99.90
10070;DHT22;5074;53.720;10.014;2022-12-01T03:38:22;3.70;99.90
10070;DHT22;5074;53.720;10.014;2022-12-01T03:40:52;3.70;99.90
10070;DHT22;5074;53.720;10.014;2022-12-01T03:43:25;3.70;99.90
10070;DHT22;5074;53.720;10.014;2022-12-01T03:45:58;3.70;99.90
10070;DHT22;5074;53.720;10.014;2022-12-01T03:48:35;3.70;99.90
10070;DHT22;5074;53.720;10.014;2022-12-01T03:51:05;3.70;99.90
10070;DHT22;5074;53.720;10.014;2022-12-01T03:53:48;3.70;99.90
10070;DHT22;5074;53.720;10.014;2022-12-01T03:56:22;3.70;99.90
10070;DHT22;5074;53.720;10.014;2022-12-01T03:58:54;3.70;99.90
10070;DHT22;5074;53.720;10.014;2022-12-01T04:01:24;3.70;99.90
10070;DHT22;5074;53.720;10.014;2022-12-01T04:04:03;3.70;99.90
10070;DHT22;5074;53.720;10.014;2022-12-01T04:06:32;3.70;99.90
10070;DHT22;5074;53.720;10.014;2022-12-01T04:09:01;3.70;99.90
10070;DHT22;5074;53.720;10.014;2022-12-01T04:11:29;3.70;99.90
10070;DHT22;5074;53.720;10.014;2022-12-01T04:14:15;3.70;99.90
10070;DHT22;5074;53.720;10.014;2022-12-01T04:16:43;3.60;99.90
10070;DHT22;5074;53.720;10.014;2022-12-01T04:19:12;3.60;99.90
10070;DHT22;5074;53.720;10.014;2022-12-01T04:21:40;3.60;99.90
10070;DHT22;5074;53.720;10.014;2022-12-01T04:24:10;3.70;99.90
10070;DHT22;5074;53.720;10.014;2022-12-01T04:26:38;3.60;99.90
10070;DHT22;5074;53.720;10.014;2022-12-01T04:29:10;3.60;99.90
10070;DHT22;5074;53.720;10.014;2022-12-01T04:31:38;3.60;99.90
10070;DHT22;5074;53.720;10.014;2022-12-01T04:34:08;3.60;99.90
10070;DHT22;5074;53.720;10.014;2022-12-01T04:36:37;3.60;99.90
10070;DHT22;5074;53.720;10.014;2022-12-01T04:39:05;3.60;99.90
10070;DHT22;5074;53.720;10.014;2022-12-01T04:41:33;3.60;99.90
10070;DHT22;5074;53.720;10.014;2022-12-01T04:44:02;3.60;99.90
10070;DHT22;5074;53.720;10.014;2022-12-01T04:46:30;3.60;99.90
10070;DHT22;5074;53.720;10.014;2022-12-01T04:48:58;3.70;99.90
10070;DHT22;5074;53.720;10.014;2022-12-01T04:51:26;3.80;99.90
10070;DHT22;5074;53.720;10.014;2022-12-01T04:53:55;3.80;99.90
10070;DHT22;5074;53.720;10.014;2022-12-01T04:56:23;3.90;99.90
10070;DHT22;5074;53.720;10.014;2022-12-01T04:58:51;3.80;99.90
10070;DHT22;5074;53.720;10.014;2022-12-01T05:01:19;3.70;99.90
10070;DHT22;5074;53.720;10.014;2022-12-01T05:03:47;3.80;99.90
10070;DHT22;5074;53.720;10.014;2022-12-01T05:06:16;3.70;99.90
10070;DHT22;5074;53.720;10.014;2022-12-01T05:08:45;3.80;99.90
10070;DHT22;5074;53.720;10.014;2022-12-01T05:11:16;3.70;99.90
10070;DHT22;5074;53.720;10.014;2022-12-01T05:13:45;3.70;99.90
10070;DHT22;5074;53.720;10.014;2022-12-01T05:16:15;4.10;99.90
10070;DHT22;5074;53.720;10.014;2022-12-01T05:18:46;4.30;99.90
10070;DHT22;5074;53.720;10.014;2022-12-01T05:21:15;4.70;99.90
10070;DHT22;5074;53.720;10.014;2022-12-01T05:23:43;4.60;99.90
10070;DHT22;5074;53.720;10.014;2022-12-01T05:26:11;4.60;99.90
10070;DHT22;5074;53.720;10.014;2022-12-01T05:28:40;4.70;99.90
10070;DHT22;5074;53.720;10.014;2022-12-01T05:31:08;4.80;99.90
10070;DHT22;5074;53.720;10.014;2022-12-01T05:33:36;4.70;99.90
10070;DHT22;5074;53.720;10.014;2022-12-01T05:36:05;4.60;99.90
10070;DHT22;5074;53.720;10.014;2022-12-01T05:38:33;4.50;99.90
10070;DHT22;5074;53.720;10.014;2022-12-01T05:41:01;4.40;99.90
10070;DHT22;5074;53.720;10.014;2022-12-01T05:43:29;4.30;99.90
10070;DHT22;5074;53.720;10.014;2022-12-01T05:45:59;4.40;99.90
10070;DHT22;5074;53.720;10.014;2022-12-01T05:48:27;4.60;99.90
10070;DHT22;5074;53.720;10.014;2022-12-01T05:50:55;4.60;99.90
10070;DHT22;5074;53.720;10.014;2022-12-01T05:53:22;4.70;99.90
10070;DHT22;5074;53.720;10.014;2022-12-01T05:55:51;4.50;99.90
10070;DHT22;5074;53.720;10.014;2022-12-01T05:58:19;4.70;99.90
10070;DHT22;5074;53.720;10.014;2022-12-01T06:00:47;4.70;99.90
10070;DHT22;5074;53.720;10.014;2022-12-01T06:03:17;4.70;99.90
10070;DHT22;5074;53.720;10.014;2022-12-01T06:05:45;4.60;99.90
10070;DHT22;5074;53.720;10.014;2022-12-01T06:08:13;4.50;99.90
10070;DHT22;5074;53.720;10.014;2022-12-01T06:10:41;4.50;99.90
10070;DHT22;5074;53.720;10.014;2022-12-01T06:13:09;4.60;99.90
10070;DHT22;5074;53.720;10.014;2022-12-01T06:15:38;4.60;99.90
10070;DHT22;5074;53.720;10.014;2022-12-01T06:18:06;4.70;99.90
10070;DHT22;5074;53.720;10.014;2022-12-01T06:20:35;4.70;99.90
10070;DHT22;5074;53.720;10.014;2022-12-01T06:23:03;4.50;99.90
10070;DHT22;5074;53.720;10.014;2022-12-01T06:25:31;4.40;99.90
10070;DHT22;5074;53.720;10.014;2022-12-01T06:27:59;4.40;99.90
10070;DHT22;5074;53.720;10.014;2022-12-01T06:30:27;4.20;99.90
10070;DHT22;5074;53.720;10.014;2022-12-01T06:32:55;4.10;99.90
10070;DHT22;5074;53.720;10.014;2022-12-01T06:35:23;3.90;99.90
10070;DHT22;5074;53.720;10.014;2022-12-01T06:37:53;3.90;99.90
10070;DHT22;5074;53.720;10.014;2022-12-01T06:40:21;3.80;99.90
10070;DHT22;5074;53.720;10.014;2022-12-01T06:42:49;3.80;99.90
10070;DHT22;5074;53.720;10.014;2022-12-01T06:45:17;3.70;99.90
10070;DHT22;5074;53.720;10.014;2022-12-01T06:47:45;3.70;99.90
10070;DHT22;5074;53.720;10.014;2022-12-01T06:50:14;3.60;99.90
10070;DHT22;5074;53.720;10.014;2022-12-01T06:52:42;3.60;99.90
10070;DHT22;5074;53.720;10.014;2022-12-01T06:55:11;3.60;99.90
10070;DHT22;5074;53.720;10.014;2022-12-01T06:57:40;3.60;99.90
10070;DHT22;5074;53.720;10.014;2022-12-01T07:00:09;3.60;99.90
10070;DHT22;5074;53.720;10.014;2022-12-01T07:02:39;3.60;99.90
10070;DHT22;5074;53.720;10.014;2022-12-01T07:05:07;3.60;99.90
10070;DHT22;5074;53.720;10.014;2022-12-01T07:07:37;3.60;99.90
10070;DHT22;5074;53.720;10.014;2022-12-01T07:10:06;3.60;99.90
10070;DHT22;5074;53.720;10.014;2022-12-01T07:12:37;3.60;99.90
10070;DHT22;5074;53.720;10.014;2022-12-01T07:15:06;3.60;99.90
10070;DHT22;5074;53.720;10.014;2022-12-01T07:17:35;3.60;99.90
10070;DHT22;5074;53.720;10.014;2022-12-01T07:20:03;3.60;99.90
10070;DHT22;5074;53.720;10.014;2022-12-01T07:22:34;3.60;99.90
10070;DHT22;5074;53.720;10.014;2022-12-01T07:25:02;3.60;99.90
10070;DHT22;5074;53.720;10.014;2022-12-01T07:27:31;3.50;99.90
10070;DHT22;5074;53.720;10.014;2022-12-01T07:30:00;3.50;99.90
10070;DHT22;5074;53.720;10.014;2022-12-01T07:32:29;3.50;99.90
10070;DHT22;5074;53.720;10.014;2022-12-01T07:34:57;3.50;99.90
10070;DHT22;5074;53.720;10.014;2022-12-01T07:37:25;3.50;99.90
10070;DHT22;5074;53.720;10.014;2022-12-01T07:39:53;3.50;99.90
10070;DHT22;5074;53.720;10.014;2022-12-01T07:42:21;3.50;99.90
10070;DHT22;5074;53.720;10.014;2022-12-01T07:44:49;3.50;99.90
10070;DHT22;5074;53.720;10.014;2022-12-01T07:47:18;3.50;99.90
10070;DHT22;5074;53.720;10.014;2022-12-01T07:49:46;3.50;99.90
10070;DHT22;5074;53.720;10.014;2022-12-01T07:52:15;3.40;99.90
10070;DHT22;5074;53.720;10.014;2022-12-01T07:54:43;3.50;99.90
10070;DHT22;5074;53.720;10.014;2022-12-01T07:57:11;3.50;99.90
10070;DHT22;5074;53.720;10.014;2022-12-01T07:59:40;3.50;99.90
10070;DHT22;5074;53.720;10.014;2022-12-01T08:02:08;3.50;99.90
10070;DHT22;5074;53.720;10.014;2022-12-01T08:04:39;3.50;99.90
10070;DHT22;5074;53.720;10.014;2022-12-01T08:07:07;3.50;99.90
10070;DHT22;5074;53.720;10.014;2022-12-01T08:09:35;3.50;99.90
10070;DHT22;5074;53.720;10.014;2022-12-01T08:12:03;3.50;99.90
10070;DHT22;5074;53.720;10.014;2022-12-01T08:14:31;3.50;99.90
10070;DHT22;5074;53.720;10.014;2022-12-01T08:16:59;3.50;99.90
10070;DHT22;5074;53.720;10.014;2022-12-01T08:19:27;3.50;99.90
10070;DHT22;5074;53.720;10.014;2022-12-01T08:21:56;3.50;99.90
10070;DHT22;5074;53.720;10.014;2022-12-01T08:24:24;3.50;99.90
10070;DHT22;5074;53.720;10.014;2022-12-01T08:26:52;3.50;99.90
10070;DHT22;5074;53.720;10.014;2022-12-01T08:29:20;3.50;99.90
10070;DHT22;5074;53.720;10.014;2022-12-01T08:31:48;3.50;99.90
10070;DHT22;5074;53.720;10.014;2022-12-01T08:34:16;3.50;99.90
10070;DHT22;5074;53.720;10.014;2022-12-01T08:36:45;3.50;99.90
10070;DHT22;5074;53.720;10.014;2022-12-01T08:39:14;3.60;99.90
10070;DHT22;5074;53.720;10.014;2022-12-01T08:41:42;3.60;99.90
10070;DHT22;5074;53.720;10.014;2022-12-01T08:44:10;3.60;99.90
10070;DHT22;5074;53.720;10.014;2022-12-01T08:46:38;3.60;99.90
10070;DHT22;5074;53.720;10.014;2022-12-01T08:49:07;3.60;99.90
10070;DHT22;5074;53.720;10.014;2022-12-01T08:51:35;3.70;99.90
10070;DHT22;5074;53.720;10.014;2022-12-01T08:54:03;3.70;99.90
10070;DHT22;5074;53.720;10.014;2022-12-01T08:56:33;3.70;99.90
10070;DHT22;5074;53.720;10.014;2022-12-01T08:59:03;3.70;99.90
10070;DHT22;5074;53.720;10.014;2022-12-01T09:01:31;3.70;99.90
10070;DHT22;5074;53.720;10.014;2022-12-01T09:04:00;3.70;99.90
10070;DHT22;5074;53.720;10.014;2022-12-01T09:06:37;3.70;99.90
10070;DHT22;5074;53.720;10.014;2022-12-01T09:09:06;3.80;99.90
10070;DHT22;5074;53.720;10.014;2022-12-01T09:11:36;3.80;99.90
10070;DHT22;5074;53.720;10.014;2022-12-01T09:14:05;3.80;99.90
10070;DHT22;5074;53.720;10.014;2022-12-01T09:16:33;3.80;99.90
10070;DHT22;5074;53.720;10.014;2022-12-01T09:19:01;3.80;99.90
10070;DHT22;5074;53.720;10.014;2022-12-01T09:21:30;3.80;99.90
10070;DHT22;5074;53.720;10.014;2022-12-01T09:24:00;3.80;99.90
10070;DHT22;5074;53.720;10.014;2022-12-01T09:26:28;3.80;99.90
10070;DHT22;5074;53.720;10.014;2022-12-01T09:28:58;3.80;99.90
10070;DHT22;5074;53.720;10.014;2022-12-01T09:31:28;3.80;99.90
10070;DHT22;5074;53.720;10.014;2022-12-01T09:33:57;3.80;99.90
10070;DHT22;5074;53.720;10.014;2022-12-01T09:36:26;3.80;99.90
10070;DHT22;5074;53.720;10.014;2022-12-01T09:38:55;3.80;99.90
10070;DHT22;5074;53.720;10.014;2022-12-01T09:41:25;3.80;99.90
10070;DHT22;5074;53.720;10.014;2022-12-01T09:43:59;3.90;99.90
10070;DHT22;5074;53.720;10.014;2022-12-01T09:46:32;3.90;99.90
10070;DHT22;5074;53.720;10.014;2022-12-01T09:49:08;3.80;99.90
10070;DHT22;5074;53.720;10.014;2022-12-01T09:51:42;3.80;99.90
10070;DHT22;5074;53.720;10.014;2022-12-01T09:54:11;3.80;99.90
10070;DHT22;5074;53.720;10.014;2022-12-01T09:56:42;3.80;99.90
10070;DHT22;5074;53.720;10.014;2022-12-01T09:59:15;3.80;99.90
10070;DHT22;5074;53.720;10.014;2022-12-01T10:01:48;3.80;99.90
10070;DHT22;5074;53.720;10.014;2022-12-01T10:04:21;3.80;99.90
10070;DHT22;5074;53.720;10.014;2022-12-01T10:06:55;3.80;99.90
10070;DHT22;5074;53.720;10.014;2022-12-01T10:09:28;3.80;99.90
10070;DHT22;5074;53.720;10.014;2022-12-01T10:12:05;3.80;99.90
10070;DHT22;5074;53.720;10.014;2022-12-01T10:14:42;3.80;99.90
10070;DHT22;5074;53.720;10.014;2022-12-01T10:17:15;3.80;99.90
10070;DHT22;5074;53.720;10.014;2022-12-01T10:19:52;3.80;99.90
10070;DHT22;5074;53.720;10.014;2022-12-01T10:22:30;3.70;99.90
10070;DHT22;5074;53.720;10.014;2022-12-01T10:25:15;3.70;99.90
10070;DHT22;5074;53.720;10.014;2022-12-01T10:27:52;3.60;99.90
10070;DHT22;5074;53.720;10.014;2022-12-01T10:30:32;3.60;99.90
10070;DHT22;5074;53.720;10.014;2022-12-01T10:33:08;3.60;99.90
10070;DHT22;5074;53.720;10.014;2022-12-01T10:35:46;3.60;99.90
10070;DHT22;5074;53.720;10.014;2022-12-01T10:38:17;3.60;99.90
10070;DHT22;5074;53.720;10.014;2022-12-01T10:40:52;3.60;99.90
10070;DHT22;5074;53.720;10.014;2022-12-01T10:43:25;3.50;99.90
10070;DHT22;5074;53.720;10.014;2022-12-01T10:46:00;3.50;99.90
10070;DHT22;5074;53.720;10.014;2022-12-01T10:48:41;3.50;99.90
10070;DHT22;5074;53.720;10.014;2022-12-01T10:51:19;3.50;99.90
10070;DHT22;5074;53.720;10.014;2022-12-01T10:53:48;3.50;99.90
10070;DHT22;5074;53.720;10.014;2022-12-01T10:56:17;3.50;99.90
10070;DHT22;5074;53.720;10.014;2022-12-01T10:58:47;3.50;99.90
10070;DHT22;5074;53.720;10.014;2022-12-01T11:01:20;3.40;99.90
10070;DHT22;5074;53.720;10.014;2022-12-01T11:03:51;3.50;99.90
10070;DHT22;5074;53.720;10.014;2022-12-01T11:06:23;3.50;99.90
10070;DHT22;5074;53.720;10.014;2022-12-01T11:08:54;3.40;99.90
10070;DHT22;5074;53.720;10.014;2022-12-01T11:11:26;3.30;99.90
10070;DHT22;5074;53.720;10.014;2022-12-01T11:13:57;3.30;99.90
10070;DHT22;5074;53.720;10.014;2022-12-01T11:16:37;3.30;99.90
10070;DHT22;5074;53.720;10.014;2022-12-01T11:19:08;3.30;99.90
10070;DHT22;5074;53.720;10.014;2022-12-01T11:21:54;3.30;99.90
10070;DHT22;5074;53.720;10.014;2022-12-01T11:24:25;3.30;99.90
10070;DHT22;5074;53.720;10.014;2022-12-01T11:26:59;3.20;99.90
10070;DHT22;5074;53.720;10.014;2022-12-01T11:29:29;3.10;99.90
10070;DHT22;5074;53.720;10.014;2022-12-01T11:32:13;3.20;99.90
10070;DHT22;5074;53.720;10.014;2022-12-01T11:34:47;3.20;99.90
10070;DHT22;5074;53.720;10.014;2022-12-01T11:37:18;3.20;99.90
10070;DHT22;5074;53.720;10.014;2022-12-01T11:39:48;3.20;99.90
10070;DHT22;5074;53.720;10.014;2022-12-01T11:42:20;3.20;99.90
10070;DHT22;5074;53.720;10.014;2022-12-01T11:44:52;3.20;99.90
10070;DHT22;5074;53.720;10.014;2022-12-01T11:47:24;3.20;99.90
10070;DHT22;5074;53.720;10.014;2022-12-01T11:49:54;3.20;99.90
10070;DHT22;5074;53.720;10.014;2022-12-01T11:52:25;3.20;99.90
10070;DHT22;5074;53.720;10.014;2022-12-01T11:54:57;3.20;99.90
10070;DHT22;5074;53.720;10.014;2022-12-01T11:57:35;3.20;99.90
10070;DHT22;5074;53.720;10.014;2022-12-01T12:00:11;3.20;99.90
10070;DHT22;5074;53.720;10.014;2022-12-01T12:02:43;3.20;99.90
10070;DHT22;5074;53.720;10.014;2022-12-01T12:05:33;3.20;99.90
10070;DHT22;5074;53.720;10.014;2022-12-01T12:08:15;3.20;99.90
10070;DHT22;5074;53.720;10.014;2022-12-01T12:10:51;3.20;99.90
10070;DHT22;5074;53.720;10.014;2022-12-01T12:16:24;3.10;99.90
10070;DHT22;5074;53.720;10.014;2022-12-01T12:19:08;3.10;99.90
10070;DHT22;5074;53.720;10.014;2022-12-01T12:22:07;3.00;99.90
10070;DHT22;5074;53.720;10.014;2022-12-01T12:24:49;3.10;99.90
10070;DHT22;5074;53.720;10.014;2022-12-01T12:27:27;3.00;99.90
10070;DHT22;5074;53.720;10.014;2022-12-01T12:30:08;3.10;99.90
10070;DHT22;5074;53.720;10.014;2022-12-01T12:32:55;3.10;99.90
10070;DHT22;5074;53.720;10.014;2022-12-01T12:35:46;3.10;99.90
10070;DHT22;5074;53.720;10.014;2022-12-01T12:38:24;3.10;99.90
10070;DHT22;5074;53.720;10.014;2022-12-01T12:41:12;3.10;99.90
10070;DHT22;5074;53.720;10.014;2022-12-01T12:43:50;3.10;99.90
10070;DHT22;5074;53.720;10.014;2022-12-01T12:46:27;3.10;99.90
10070;DHT22;5074;53.720;10.014;2022-12-01T12:49:09;3.10;99.90
10070;DHT22;5074;53.720;10.014;2022-12-01T12:51:51;3.10;99.90
10070;DHT22;5074;53.720;10.014;2022-12-01T12:54:34;3.20;99.90
10070;DHT22;5074;53.720;10.014;2022-12-01T12:57:13;3.10;99.90
10070;DHT22;5074;53.720;10.014;2022-12-01T12:59:51;3.10;99.90
10070;DHT22;5074;53.720;10.014;2022-12-01T13:02:24;3.10;99.90
10070;DHT22;5074;53.720;10.014;2022-12-01T13:04:58;3.10;99.90
10070;DHT22;5074;53.720;10.014;2022-12-01T13:07:35;3.10;99.90
10070;DHT22;5074;53.720;10.014;2022-12-01T13:10:09;3.20;99.90
10070;DHT22;5074;53.720;10.014;2022-12-01T13:12:44;3.10;99.90
10070;DHT22;5074;53.720;10.014;2022-12-01T13:15:19;3.10;99.90
10070;DHT22;5074;53.720;10.014;2022-12-01T13:17:49;3.10;99.90
10070;DHT22;5074;53.720;10.014;2022-12-01T13:20:20;3.10;99.90
10070;DHT22;5074;53.720;10.014;2022-12-01T13:22:54;3.00;99.90
10070;DHT22;5074;53.720;10.014;2022-12-01T13:25:25;3.00;99.90
10070;DHT22;5074;53.720;10.014;2022-12-01T13:27:56;3.00;99.90
10070;DHT22;5074;53.720;10.014;2022-12-01T13:30:27;3.00;99.90
10070;DHT22;5074;53.720;10.014;2022-12-01T13:32:59;3.00;99.90
10070;DHT22;5074;53.720;10.014;2022-12-01T13:35:29;2.90;99.90
10070;DHT22;5074;53.720;10.014;2022-12-01T13:43:55;2.80;99.90
10070;DHT22;5074;53.720;10.014;2022-12-01T13:46:27;2.80;99.90
10070;DHT22;5074;53.720;10.014;2022-12-01T13:48:58;2.70;99.90
10070;DHT22;5074;53.720;10.014;2022-12-01T13:51:27;2.80;99.90
10070;DHT22;5074;53.720;10.014;2022-12-01T13:54:32;2.80;99.90
10070;DHT22;5074;53.720;10.014;2022-12-01T13:57:02;2.70;99.90
10070;DHT22;5074;53.720;10.014;2022-12-01T13:59:43;2.80;99.90
10070;DHT22;5074;53.720;10.014;2022-12-01T14:02:33;2.80;99.90
10070;DHT22;5074;53.720;10.014;2022-12-01T14:08:11;2.80;99.90
10070;DHT22;5074;53.720;10.014;2022-12-01T14:10:52;2.80;99.90
10070;DHT22;5074;53.720;10.014;2022-12-01T14:13:21;2.80;99.90
10070;DHT22;5074;53.720;10.014;2022-12-01T14:15:52;2.80;99.90
10070;DHT22;5074;53.720;10.014;2022-12-01T14:18:25;2.70;99.90
10070;DHT22;5074;53.720;10.014;2022-12-01T14:20:58;2.80;99.90
10070;DHT22;5074;53.720;10.014;2022-12-01T14:23:29;2.80;99.90
10070;DHT22;5074;53.720;10.014;2022-12-01T14:26:10;2.80;99.90
10070;DHT22;5074;53.720;10.014;2022-12-01T14:34:48;2.70;99.90
10070;DHT22;5074;53.720;10.014;2022-12-01T14:37:23;2.80;99.90
10070;DHT22;5074;53.720;10.014;2022-12-01T14:39:56;2.70;99.90
10070;DHT22;5074;53.720;10.014;2022-12-01T14:42:31;2.70;99.90
10070;DHT22;5074;53.720;10.014;2022-12-01T14:45:21;2.70;99.90
10070;DHT22;5074;53.720;10.014;2022-12-01T14:47:54;2.60;99.90
10070;DHT22;5074;53.720;10.014;2022-12-01T14:50:29;2.60;99.90
10070;DHT22;5074;53.720;10.014;2022-12-01T14:53:03;2.70;99.90
10070;DHT22;5074;53.720;10.014;2022-12-01T14:55:39;2.70;99.90
10070;DHT22;5074;53.720;10.014;2022-12-01T14:58:14;2.70;99.90
10070;DHT22;5074;53.720;10.014;2022-12-01T15:00:52;2.70;99.90
10070;DHT22;5074;53.720;10.014;2022-12-01T15:03:26;2.70;99.90
10070;DHT22;5074;53.720;10.014;2022-12-01T15:05:58;2.60;99.90
10070;DHT22;5074;53.720;10.014;2022-12-01T15:08:27;2.60;99.90
10070;DHT22;5074;53.720;10.014;2022-12-01T15:11:20;2.60;99.90
10070;DHT22;5074;53.720;10.014;2022-12-01T15:13:52;2.60;99.90
10070;DHT22;5074;53.720;10.014;2022-12-01T15:16:22;2.60;99.90
10070;DHT22;5074;53.720;10.014;2022-12-01T15:18:53;2.70;99.90
10070;DHT22;5074;53.720;10.014;2022-12-01T15:21:22;2.70;99.90
10070;DHT22;5074;53.720;10.014;2022-12-01T15:23:53;2.70;99.90
10070;DHT22;5074;53.720;10.014;2022-12-01T15:26:24;2.70;99.90
10070;DHT22;5074;53.720;10.014;2022-12-01T15:29:11;2.60;99.90
10070;DHT22;5074;53.720;10.014;2022-12-01T15:31:41;2.60;99.90
10070;DHT22;5074;53.720;10.014;2022-12-01T15:34:13;2.60;99.90
10070;DHT22;5074;53.720;10.014;2022-12-01T15:36:42;2.60;99.90
10070;DHT22;5074;53.720;10.014;2022-12-01T15:39:12;2.60;99.90
10070;DHT22;5074;53.720;10.014;2022-12-01T15:41:43;2.60;99.90
10070;DHT22;5074;53.720;10.014;2022-12-01T15:44:18;2.60;99.90
10070;DHT22;5074;53.720;10.014;2022-12-01T15:46:47;2.60;99.90
10070;DHT22;5074;53.720;10.014;2022-12-01T15:49:16;2.60;99.90
10070;DHT22;5074;53.720;10.014;2022-12-01T15:51:46;2.60;99.90
10070;DHT22;5074;53.720;10.014;2022-12-01T15:54:17;2.60;99.90
10070;DHT22;5074;53.720;10.014;2022-12-01T15:56:49;2.60;99.90
10070;DHT22;5074;53.720;10.014;2022-12-01T15:59:25;2.60;99.90
10070;DHT22;5074;53.720;10.014;2022-12-01T16:01:56;2.60;99.90
10070;DHT22;5074;53.720;10.014;2022-12-01T16:04:27;2.50;99.90
10070;DHT22;5074;53.720;10.014;2022-12-01T16:06:58;2.60;99.90
10070;DHT22;5074;53.720;10.014;2022-12-01T16:09:29;2.60;99.90
10070;DHT22;5074;53.720;10.014;2022-12-01T16:12:20;2.60;99.90
10070;DHT22;5074;53.720;10.014;2022-12-01T16:14:52;2.60;99.90
10070;DHT22;5074;53.720;10.014;2022-12-01T16:17:22;2.60;99.90
10070;DHT22;5074;53.720;10.014;2022-12-01T16:22:52;2.60;99.90
10070;DHT22;5074;53.720;10.014;2022-12-01T16:25:32;2.70;99.90
10070;DHT22;5074;53.720;10.014;2022-12-01T16:28:02;2.70;99.90
10070;DHT22;5074;53.720;10.014;2022-12-01T16:30:35;2.70;99.90
10070;DHT22;5074;53.720;10.014;2022-12-01T16:33:05;2.70;99.90
10070;DHT22;5074;53.720;10.014;2022-12-01T16:35:41;2.70;99.90
10070;DHT22;5074;53.720;10.014;2022-12-01T16:38:11;2.60;99.90